Yengema Airport

Jump to: basic info | weather | comments

Related pages: nearby airports | nearby navaids | notams | map

Basic information (top)

Codes: WYE GFYE
Location: lon 8.610470, lat -11.045400, elev 1,300 ft / 396 m msl
Status: medium_airport
Scheduled airline service: yes
Links: Wikipedia Mobile

Weather (top)

Current conditions for Lungi International Airport 128nm (236km) W (rec'd 2014/07/25 12:30Z):

GFLL 251230Z 14006KT 9999 NSW BKN011 FEW027CB 26/23 Q1013 RMK CB-NE

Airport forecast for Lungi International Airport 128nm (236km) W (rec'd 2014/07/25 12:00Z):

TAF GFLL 251000Z 2512/2618 09011KT 9000 -RA BKN010 FEW028CB 
      TEMPO 2517/2522 27010KT 9999 TS BKN010 FEW027CB 
      BECMG 2601/2603 06006KT 9000 RA BKN010 
      TEMPO 2608/2613 09006KT 9999 BKN011

Latest comments (top)

No comments yet for Yengema Airport

More... (top)

See also NOTAMs and nearby airports and navaids, or visit the Yengema Airport page at the main OurAirports website..